sensor_id;sensor_type;location;lat;lon;timestamp;P1;durP1;ratioP1;P2;durP2;ratioP2
76262;SDS011;65080;50.908;6.916;2023-02-01T00:02:00;16.63;;;6.80;;
76262;SDS011;65080;50.908;6.916;2023-02-01T00:04:29;17.27;;;5.93;;
76262;SDS011;65080;50.908;6.916;2023-02-01T00:06:59;18.90;;;7.50;;
76262;SDS011;65080;50.908;6.916;2023-02-01T00:09:28;12.63;;;6.67;;
76262;SDS011;65080;50.908;6.916;2023-02-01T00:11:56;16.17;;;5.83;;
76262;SDS011;65080;50.908;6.916;2023-02-01T00:14:28;11.13;;;6.17;;
76262;SDS011;65080;50.908;6.916;2023-02-01T00:16:56;14.60;;;6.53;;
76262;SDS011;65080;50.908;6.916;2023-02-01T00:19:25;12.50;;;6.20;;
76262;SDS011;65080;50.908;6.916;2023-02-01T00:21:53;12.70;;;6.30;;
76262;SDS011;65080;50.908;6.916;2023-02-01T00:24:23;17.83;;;6.50;;
76262;SDS011;65080;50.908;6.916;2023-02-01T00:26:51;16.17;;;6.33;;
76262;SDS011;65080;50.908;6.916;2023-02-01T00:29:19;13.60;;;6.80;;
76262;SDS011;65080;50.908;6.916;2023-02-01T00:31:49;11.07;;;5.80;;
76262;SDS011;65080;50.908;6.916;2023-02-01T00:34:18;14.53;;;5.90;;
76262;SDS011;65080;50.908;6.916;2023-02-01T00:36:47;14.47;;;5.63;;
76262;SDS011;65080;50.908;6.916;2023-02-01T00:39:16;18.13;;;5.60;;
76262;SDS011;65080;50.908;6.916;2023-02-01T00:41:45;18.40;;;5.90;;
76262;SDS011;65080;50.908;6.916;2023-02-01T00:44:14;13.10;;;5.33;;
76262;SDS011;65080;50.908;6.916;2023-02-01T00:46:42;13.50;;;4.77;;
76262;SDS011;65080;50.908;6.916;2023-02-01T00:49:11;10.00;;;5.33;;
76262;SDS011;65080;50.908;6.916;2023-02-01T00:51:39;14.73;;;5.00;;
76262;SDS011;65080;50.908;6.916;2023-02-01T00:54:07;12.67;;;5.20;;
76262;SDS011;65080;50.908;6.916;2023-02-01T00:56:35;9.23;;;4.80;;
76262;SDS011;65080;50.908;6.916;2023-02-01T00:59:05;14.97;;;4.63;;
76262;SDS011;65080;50.908;6.916;2023-02-01T01:01:33;21.13;;;4.47;;
76262;SDS011;65080;50.908;6.916;2023-02-01T01:04:01;11.23;;;4.10;;
76262;SDS011;65080;50.908;6.916;2023-02-01T01:06:31;11.43;;;3.47;;
76262;SDS011;65080;50.908;6.916;2023-02-01T01:09:01;10.73;;;3.97;;
76262;SDS011;65080;50.908;6.916;2023-02-01T01:11:31;10.50;;;4.70;;
76262;SDS011;65080;50.908;6.916;2023-02-01T01:14:01;18.33;;;4.70;;
76262;SDS011;65080;50.908;6.916;2023-02-01T01:16:32;9.87;;;3.80;;
76262;SDS011;65080;50.908;6.916;2023-02-01T01:19:01;8.40;;;3.20;;
76262;SDS011;65080;50.908;6.916;2023-02-01T01:21:30;16.27;;;3.43;;
76262;SDS011;65080;50.908;6.916;2023-02-01T01:23:58;15.33;;;3.60;;
76262;SDS011;65080;50.908;6.916;2023-02-01T01:26:27;16.93;;;3.30;;
76262;SDS011;65080;50.908;6.916;2023-02-01T01:28:58;12.27;;;3.50;;
76262;SDS011;65080;50.908;6.916;2023-02-01T01:31:26;11.23;;;3.40;;
76262;SDS011;65080;50.908;6.916;2023-02-01T01:33:57;12.73;;;3.93;;
76262;SDS011;65080;50.908;6.916;2023-02-01T01:36:26;11.17;;;2.87;;
76262;SDS011;65080;50.908;6.916;2023-02-01T01:38:56;12.70;;;3.03;;
76262;SDS011;65080;50.908;6.916;2023-02-01T01:41:25;10.70;;;2.90;;
76262;SDS011;65080;50.908;6.916;2023-02-01T01:43:57;10.90;;;2.27;;
76262;SDS011;65080;50.908;6.916;2023-02-01T01:46:27;12.77;;;2.80;;
76262;SDS011;65080;50.908;6.916;2023-02-01T01:49:02;12.07;;;2.40;;
76262;SDS011;65080;50.908;6.916;2023-02-01T01:51:35;11.70;;;3.17;;
76262;SDS011;65080;50.908;6.916;2023-02-01T01:54:07;14.17;;;3.10;;
76262;SDS011;65080;50.908;6.916;2023-02-01T01:56:39;13.67;;;2.80;;
76262;SDS011;65080;50.908;6.916;2023-02-01T01:59:09;10.80;;;2.50;;
76262;SDS011;65080;50.908;6.916;2023-02-01T02:01:37;11.70;;;2.80;;
76262;SDS011;65080;50.908;6.916;2023-02-01T02:04:07;11.40;;;3.27;;
76262;SDS011;65080;50.908;6.916;2023-02-01T02:06:39;11.33;;;3.27;;
76262;SDS011;65080;50.908;6.916;2023-02-01T02:09:12;14.63;;;3.47;;
76262;SDS011;65080;50.908;6.916;2023-02-01T02:11:40;12.73;;;3.73;;
76262;SDS011;65080;50.908;6.916;2023-02-01T02:14:09;9.07;;;2.90;;
76262;SDS011;65080;50.908;6.916;2023-02-01T02:16:47;15.07;;;3.40;;
76262;SDS011;65080;50.908;6.916;2023-02-01T02:26:14;13.40;;;3.53;;
76262;SDS011;65080;50.908;6.916;2023-02-01T02:29:07;18.90;;;3.93;;
76262;SDS011;65080;50.908;6.916;2023-02-01T02:32:09;14.93;;;3.80;;
76262;SDS011;65080;50.908;6.916;2023-02-01T02:35:02;13.43;;;4.70;;
76262;SDS011;65080;50.908;6.916;2023-02-01T02:37:38;12.20;;;3.70;;
76262;SDS011;65080;50.908;6.916;2023-02-01T02:40:12;10.00;;;3.70;;
76262;SDS011;65080;50.908;6.916;2023-02-01T02:42:47;12.17;;;4.00;;
76262;SDS011;65080;50.908;6.916;2023-02-01T02:45:37;12.80;;;3.80;;
76262;SDS011;65080;50.908;6.916;2023-02-01T02:48:28;9.10;;;4.40;;
76262;SDS011;65080;50.908;6.916;2023-02-01T02:51:07;16.17;;;5.30;;
76262;SDS011;65080;50.908;6.916;2023-02-01T02:53:56;9.23;;;4.17;;
76262;SDS011;65080;50.908;6.916;2023-02-01T02:56:47;10.43;;;4.63;;
76262;SDS011;65080;50.908;6.916;2023-02-01T02:59:34;10.97;;;4.30;;
76262;SDS011;65080;50.908;6.916;2023-02-01T03:02:22;20.90;;;5.60;;
76262;SDS011;65080;50.908;6.916;2023-02-01T03:05:08;14.07;;;4.60;;
76262;SDS011;65080;50.908;6.916;2023-02-01T03:07:52;12.80;;;4.50;;
76262;SDS011;65080;50.908;6.916;2023-02-01T03:10:26;13.43;;;4.17;;
76262;SDS011;65080;50.908;6.916;2023-02-01T03:13:04;10.30;;;4.27;;
76262;SDS011;65080;50.908;6.916;2023-02-01T03:15:36;13.90;;;4.63;;
76262;SDS011;65080;50.908;6.916;2023-02-01T03:18:10;16.80;;;5.10;;
76262;SDS011;65080;50.908;6.916;2023-02-01T03:20:43;17.70;;;4.63;;
76262;SDS011;65080;50.908;6.916;2023-02-01T03:23:16;14.90;;;4.57;;
76262;SDS011;65080;50.908;6.916;2023-02-01T03:25:49;8.70;;;4.20;;
76262;SDS011;65080;50.908;6.916;2023-02-01T03:28:20;12.17;;;4.20;;
76262;SDS011;65080;50.908;6.916;2023-02-01T03:30:52;14.90;;;4.30;;
76262;SDS011;65080;50.908;6.916;2023-02-01T03:33:21;23.10;;;5.80;;
76262;SDS011;65080;50.908;6.916;2023-02-01T03:35:55;9.93;;;4.30;;
76262;SDS011;65080;50.908;6.916;2023-02-01T03:38:30;15.87;;;5.17;;
76262;SDS011;65080;50.908;6.916;2023-02-01T03:41:03;12.80;;;4.30;;
76262;SDS011;65080;50.908;6.916;2023-02-01T03:43:50;8.77;;;3.87;;
76262;SDS011;65080;50.908;6.916;2023-02-01T03:46:39;14.07;;;4.03;;
76262;SDS011;65080;50.908;6.916;2023-02-01T03:49:20;19.17;;;4.30;;
76262;SDS011;65080;50.908;6.916;2023-02-01T03:52:12;17.60;;;4.53;;
76262;SDS011;65080;50.908;6.916;2023-02-01T03:54:47;16.33;;;3.93;;
76262;SDS011;65080;50.908;6.916;2023-02-01T03:57:25;15.30;;;4.67;;
76262;SDS011;65080;50.908;6.916;2023-02-01T04:00:06;12.53;;;3.83;;
76262;SDS011;65080;50.908;6.916;2023-02-01T04:02:47;21.47;;;4.73;;
76262;SDS011;65080;50.908;6.916;2023-02-01T04:05:15;11.57;;;3.80;;
76262;SDS011;65080;50.908;6.916;2023-02-01T04:07:44;13.17;;;3.80;;
76262;SDS011;65080;50.908;6.916;2023-02-01T04:10:14;14.80;;;4.20;;
76262;SDS011;65080;50.908;6.916;2023-02-01T04:12:45;14.70;;;4.20;;
76262;SDS011;65080;50.908;6.916;2023-02-01T04:15:13;10.23;;;3.67;;
76262;SDS011;65080;50.908;6.916;2023-02-01T04:17:42;14.30;;;3.80;;
76262;SDS011;65080;50.908;6.916;2023-02-01T04:20:10;13.27;;;3.40;;
76262;SDS011;65080;50.908;6.916;2023-02-01T04:22:39;15.80;;;3.70;;
76262;SDS011;65080;50.908;6.916;2023-02-01T04:25:07;12.93;;;4.00;;
76262;SDS011;65080;50.908;6.916;2023-02-01T04:27:38;13.63;;;4.50;;
76262;SDS011;65080;50.908;6.916;2023-02-01T04:30:08;13.40;;;3.97;;
76262;SDS011;65080;50.908;6.916;2023-02-01T04:32:37;13.60;;;3.90;;
76262;SDS011;65080;50.908;6.916;2023-02-01T04:35:06;12.07;;;4.20;;
76262;SDS011;65080;50.908;6.916;2023-02-01T04:37:36;17.63;;;4.00;;
76262;SDS011;65080;50.908;6.916;2023-02-01T04:40:04;15.17;;;3.87;;
76262;SDS011;65080;50.908;6.916;2023-02-01T04:42:33;12.60;;;4.37;;
76262;SDS011;65080;50.908;6.916;2023-02-01T04:45:03;11.90;;;3.80;;
76262;SDS011;65080;50.908;6.916;2023-02-01T04:47:32;13.63;;;4.30;;
76262;SDS011;65080;50.908;6.916;2023-02-01T04:50:01;14.90;;;4.73;;
76262;SDS011;65080;50.908;6.916;2023-02-01T04:52:29;14.67;;;4.30;;
76262;SDS011;65080;50.908;6.916;2023-02-01T04:54:57;11.83;;;3.77;;
76262;SDS011;65080;50.908;6.916;2023-02-01T04:57:26;16.77;;;3.70;;
76262;SDS011;65080;50.908;6.916;2023-02-01T04:59:54;13.57;;;4.47;;
76262;SDS011;65080;50.908;6.916;2023-02-01T05:02:24;11.17;;;3.70;;
76262;SDS011;65080;50.908;6.916;2023-02-01T05:04:52;16.33;;;4.10;;
76262;SDS011;65080;50.908;6.916;2023-02-01T05:07:22;14.00;;;4.43;;
76262;SDS011;65080;50.908;6.916;2023-02-01T05:09:50;12.90;;;3.93;;
76262;SDS011;65080;50.908;6.916;2023-02-01T05:12:18;14.07;;;3.70;;
76262;SDS011;65080;50.908;6.916;2023-02-01T05:15:05;15.93;;;4.53;;
76262;SDS011;65080;50.908;6.916;2023-02-01T05:17:35;10.90;;;3.40;;
76262;SDS011;65080;50.908;6.916;2023-02-01T05:20:06;15.83;;;4.37;;
76262;SDS011;65080;50.908;6.916;2023-02-01T05:22:36;12.63;;;4.43;;
76262;SDS011;65080;50.908;6.916;2023-02-01T05:25:04;13.67;;;3.57;;
76262;SDS011;65080;50.908;6.916;2023-02-01T05:27:34;13.40;;;3.63;;
76262;SDS011;65080;50.908;6.916;2023-02-01T05:30:03;18.17;;;3.20;;
76262;SDS011;65080;50.908;6.916;2023-02-01T05:32:31;11.83;;;3.13;;
76262;SDS011;65080;50.908;6.916;2023-02-01T05:35:01;16.13;;;3.90;;
76262;SDS011;65080;50.908;6.916;2023-02-01T05:37:30;15.33;;;3.40;;
76262;SDS011;65080;50.908;6.916;2023-02-01T05:39:58;16.03;;;3.73;;
76262;SDS011;65080;50.908;6.916;2023-02-01T05:42:26;13.23;;;3.03;;
76262;SDS011;65080;50.908;6.916;2023-02-01T05:44:54;19.57;;;3.93;;
76262;SDS011;65080;50.908;6.916;2023-02-01T05:47:23;14.80;;;3.07;;
76262;SDS011;65080;50.908;6.916;2023-02-01T05:49:51;16.93;;;3.37;;
76262;SDS011;65080;50.908;6.916;2023-02-01T05:52:20;17.50;;;3.13;;
76262;SDS011;65080;50.908;6.916;2023-02-01T05:54:49;14.43;;;3.00;;
76262;SDS011;65080;50.908;6.916;2023-02-01T05:57:17;13.40;;;3.60;;
76262;SDS011;65080;50.908;6.916;2023-02-01T05:59:45;15.13;;;2.80;;
76262;SDS011;65080;50.908;6.916;2023-02-01T06:02:15;14.93;;;2.97;;
76262;SDS011;65080;50.908;6.916;2023-02-01T06:04:43;13.40;;;2.93;;
76262;SDS011;65080;50.908;6.916;2023-02-01T06:07:12;14.80;;;3.40;;
76262;SDS011;65080;50.908;6.916;2023-02-01T06:09:41;7.77;;;2.33;;
76262;SDS011;65080;50.908;6.916;2023-02-01T06:12:10;10.67;;;2.60;;
76262;SDS011;65080;50.908;6.916;2023-02-01T06:14:38;13.03;;;3.43;;
76262;SDS011;65080;50.908;6.916;2023-02-01T06:17:07;15.83;;;2.77;;
76262;SDS011;65080;50.908;6.916;2023-02-01T06:19:35;19.93;;;2.97;;
76262;SDS011;65080;50.908;6.916;2023-02-01T06:22:03;12.40;;;3.00;;
76262;SDS011;65080;50.908;6.916;2023-02-01T06:24:32;10.30;;;3.70;;
76262;SDS011;65080;50.908;6.916;2023-02-01T06:27:02;13.70;;;2.90;;
76262;SDS011;65080;50.908;6.916;2023-02-01T06:29:30;11.40;;;2.57;;
76262;SDS011;65080;50.908;6.916;2023-02-01T06:31:59;11.40;;;2.93;;
76262;SDS011;65080;50.908;6.916;2023-02-01T06:34:27;20.17;;;3.27;;
76262;SDS011;65080;50.908;6.916;2023-02-01T06:36:55;15.60;;;3.77;;
76262;SDS011;65080;50.908;6.916;2023-02-01T06:39:24;11.80;;;3.23;;
76262;SDS011;65080;50.908;6.916;2023-02-01T06:41:54;15.37;;;2.73;;
76262;SDS011;65080;50.908;6.916;2023-02-01T06:44:23;14.73;;;3.53;;
76262;SDS011;65080;50.908;6.916;2023-02-01T06:46:52;13.07;;;3.07;;
76262;SDS011;65080;50.908;6.916;2023-02-01T06:49:21;13.10;;;3.40;;
76262;SDS011;65080;50.908;6.916;2023-02-01T06:51:49;13.03;;;3.37;;
76262;SDS011;65080;50.908;6.916;2023-02-01T06:54:18;8.53;;;4.10;;
76262;SDS011;65080;50.908;6.916;2023-02-01T06:56:46;14.27;;;3.10;;
76262;SDS011;65080;50.908;6.916;2023-02-01T06:59:14;10.73;;;2.93;;
76262;SDS011;65080;50.908;6.916;2023-02-01T07:01:44;18.63;;;3.63;;
76262;SDS011;65080;50.908;6.916;2023-02-01T07:04:12;24.30;;;3.20;;
76262;SDS011;65080;50.908;6.916;2023-02-01T07:06:40;10.73;;;2.97;;
76262;SDS011;65080;50.908;6.916;2023-02-01T07:09:10;14.80;;;2.37;;
76262;SDS011;65080;50.908;6.916;2023-02-01T07:11:38;11.03;;;3.23;;
76262;SDS011;65080;50.908;6.916;2023-02-01T07:14:09;13.67;;;3.00;;
76262;SDS011;65080;50.908;6.916;2023-02-01T07:16:38;14.93;;;3.03;;
76262;SDS011;65080;50.908;6.916;2023-02-01T07:19:08;9.80;;;3.00;;
76262;SDS011;65080;50.908;6.916;2023-02-01T07:21:36;12.53;;;3.40;;
76262;SDS011;65080;50.908;6.916;2023-02-01T07:24:04;19.03;;;3.40;;
76262;SDS011;65080;50.908;6.916;2023-02-01T07:26:33;16.20;;;3.30;;
76262;SDS011;65080;50.908;6.916;2023-02-01T07:29:01;11.10;;;3.30;;
76262;SDS011;65080;50.908;6.916;2023-02-01T07:31:29;11.80;;;2.80;;
76262;SDS011;65080;50.908;6.916;2023-02-01T07:33:58;11.17;;;3.00;;
76262;SDS011;65080;50.908;6.916;2023-02-01T07:36:28;11.80;;;2.70;;
76262;SDS011;65080;50.908;6.916;2023-02-01T07:38:57;12.30;;;3.13;;
76262;SDS011;65080;50.908;6.916;2023-02-01T07:41:26;15.13;;;3.50;;
76262;SDS011;65080;50.908;6.916;2023-02-01T07:43:54;11.87;;;3.00;;
76262;SDS011;65080;50.908;6.916;2023-02-01T07:46:23;10.50;;;3.17;;
76262;SDS011;65080;50.908;6.916;2023-02-01T07:48:51;17.87;;;3.67;;
76262;SDS011;65080;50.908;6.916;2023-02-01T07:51:19;16.10;;;4.03;;
76262;SDS011;65080;50.908;6.916;2023-02-01T07:53:49;9.53;;;2.63;;
76262;SDS011;65080;50.908;6.916;2023-02-01T07:56:19;12.87;;;2.90;;
76262;SDS011;65080;50.908;6.916;2023-02-01T07:58:49;14.47;;;3.00;;
76262;SDS011;65080;50.908;6.916;2023-02-01T08:01:21;9.97;;;3.30;;
76262;SDS011;65080;50.908;6.916;2023-02-01T08:03:52;12.67;;;2.70;;
76262;SDS011;65080;50.908;6.916;2023-02-01T08:06:22;17.80;;;2.87;;
76262;SDS011;65080;50.908;6.916;2023-02-01T08:08:53;17.73;;;4.40;;
76262;SDS011;65080;50.908;6.916;2023-02-01T08:11:22;9.77;;;2.57;;
76262;SDS011;65080;50.908;6.916;2023-02-01T08:13:51;12.83;;;2.73;;
76262;SDS011;65080;50.908;6.916;2023-02-01T08:16:20;15.93;;;3.40;;
76262;SDS011;65080;50.908;6.916;2023-02-01T08:18:50;16.13;;;3.33;;
76262;SDS011;65080;50.908;6.916;2023-02-01T08:21:19;13.67;;;3.33;;
76262;SDS011;65080;50.908;6.916;2023-02-01T08:23:48;14.63;;;2.53;;
76262;SDS011;65080;50.908;6.916;2023-02-01T08:26:19;15.13;;;3.57;;
76262;SDS011;65080;50.908;6.916;2023-02-01T08:28:50;13.43;;;2.83;;
76262;SDS011;65080;50.908;6.916;2023-02-01T08:31:20;16.10;;;2.87;;
76262;SDS011;65080;50.908;6.916;2023-02-01T08:33:50;12.07;;;2.70;;
76262;SDS011;65080;50.908;6.916;2023-02-01T08:36:20;12.87;;;2.87;;
76262;SDS011;65080;50.908;6.916;2023-02-01T08:38:49;9.33;;;3.37;;
76262;SDS011;65080;50.908;6.916;2023-02-01T08:41:20;11.10;;;4.07;;
76262;SDS011;65080;50.908;6.916;2023-02-01T08:43:49;14.67;;;3.37;;
76262;SDS011;65080;50.908;6.916;2023-02-01T08:46:18;10.40;;;2.90;;
76262;SDS011;65080;50.908;6.916;2023-02-01T08:48:46;15.90;;;3.40;;
76262;SDS011;65080;50.908;6.916;2023-02-01T08:51:17;17.30;;;3.70;;
76262;SDS011;65080;50.908;6.916;2023-02-01T08:53:47;8.40;;;2.53;;
76262;SDS011;65080;50.908;6.916;2023-02-01T08:56:16;12.97;;;2.67;;
76262;SDS011;65080;50.908;6.916;2023-02-01T08:58:46;15.97;;;3.30;;
76262;SDS011;65080;50.908;6.916;2023-02-01T09:01:15;12.00;;;2.83;;
76262;SDS011;65080;50.908;6.916;2023-02-01T09:03:44;12.63;;;2.77;;
76262;SDS011;65080;50.908;6.916;2023-02-01T09:06:14;15.37;;;3.33;;
76262;SDS011;65080;50.908;6.916;2023-02-01T09:08:43;10.27;;;2.93;;
76262;SDS011;65080;50.908;6.916;2023-02-01T09:11:12;12.00;;;3.27;;
76262;SDS011;65080;50.908;6.916;2023-02-01T09:13:42;11.33;;;2.80;;
76262;SDS011;65080;50.908;6.916;2023-02-01T09:16:12;16.27;;;3.90;;
76262;SDS011;65080;50.908;6.916;2023-02-01T09:18:40;9.03;;;3.43;;
76262;SDS011;65080;50.908;6.916;2023-02-01T09:21:27;16.23;;;3.43;;
76262;SDS011;65080;50.908;6.916;2023-02-01T09:23:55;15.33;;;3.67;;
76262;SDS011;65080;50.908;6.916;2023-02-01T09:26:24;15.40;;;3.37;;
76262;SDS011;65080;50.908;6.916;2023-02-01T09:28:58;14.20;;;2.57;;
76262;SDS011;65080;50.908;6.916;2023-02-01T09:31:28;14.00;;;3.03;;
76262;SDS011;65080;50.908;6.916;2023-02-01T09:33:57;13.60;;;3.00;;
76262;SDS011;65080;50.908;6.916;2023-02-01T09:36:25;14.97;;;3.70;;
76262;SDS011;65080;50.908;6.916;2023-02-01T09:38:56;14.53;;;2.97;;
76262;SDS011;65080;50.908;6.916;2023-02-01T09:44:27;14.00;;;3.20;;
76262;SDS011;65080;50.908;6.916;2023-02-01T09:47:12;14.50;;;3.17;;
76262;SDS011;65080;50.908;6.916;2023-02-01T09:49:44;14.00;;;3.20;;
76262;SDS011;65080;50.908;6.916;2023-02-01T09:52:20;21.80;;;3.37;;
76262;SDS011;65080;50.908;6.916;2023-02-01T09:54:56;12.67;;;3.67;;
76262;SDS011;65080;50.908;6.916;2023-02-01T09:57:32;13.07;;;3.50;;
76262;SDS011;65080;50.908;6.916;2023-02-01T10:00:12;10.00;;;2.53;;
76262;SDS011;65080;50.908;6.916;2023-02-01T10:02:46;14.40;;;3.53;;
76262;SDS011;65080;50.908;6.916;2023-02-01T10:05:16;25.20;;;3.67;;
76262;SDS011;65080;50.908;6.916;2023-02-01T10:07:51;15.17;;;3.10;;
76262;SDS011;65080;50.908;6.916;2023-02-01T10:10:30;12.87;;;3.00;;
76262;SDS011;65080;50.908;6.916;2023-02-01T10:13:08;11.10;;;3.33;;
76262;SDS011;65080;50.908;6.916;2023-02-01T10:16:06;21.57;;;3.30;;
76262;SDS011;65080;50.908;6.916;2023-02-01T10:19:07;15.23;;;3.77;;
76262;SDS011;65080;50.908;6.916;2023-02-01T10:21:51;15.47;;;3.77;;
76262;SDS011;65080;50.908;6.916;2023-02-01T10:24:34;14.20;;;2.83;;
76262;SDS011;65080;50.908;6.916;2023-02-01T10:27:10;16.80;;;4.53;;
76262;SDS011;65080;50.908;6.916;2023-02-01T10:29:42;16.47;;;3.30;;
76262;SDS011;65080;50.908;6.916;2023-02-01T10:32:15;15.77;;;3.30;;
76262;SDS011;65080;50.908;6.916;2023-02-01T10:34:49;13.37;;;3.10;;
76262;SDS011;65080;50.908;6.916;2023-02-01T10:37:26;20.70;;;4.13;;
76262;SDS011;65080;50.908;6.916;2023-02-01T10:39:56;19.97;;;2.90;;
76262;SDS011;65080;50.908;6.916;2023-02-01T10:42:27;14.77;;;3.00;;
76262;SDS011;65080;50.908;6.916;2023-02-01T10:44:57;11.80;;;3.00;;
76262;SDS011;65080;50.908;6.916;2023-02-01T10:47:28;12.70;;;3.10;;
76262;SDS011;65080;50.908;6.916;2023-02-01T10:50:02;22.67;;;2.80;;
76262;SDS011;65080;50.908;6.916;2023-02-01T10:52:45;12.80;;;2.73;;
76262;SDS011;65080;50.908;6.916;2023-02-01T10:55:38;18.70;;;3.60;;
76262;SDS011;65080;50.908;6.916;2023-02-01T10:58:14;13.10;;;3.63;;
76262;SDS011;65080;50.908;6.916;2023-02-01T11:00:45;9.97;;;2.60;;
76262;SDS011;65080;50.908;6.916;2023-02-01T11:03:19;17.13;;;3.50;;
76262;SDS011;65080;50.908;6.916;2023-02-01T11:05:56;17.13;;;3.10;;
76262;SDS011;65080;50.908;6.916;2023-02-01T11:08:25;16.67;;;2.90;;
76262;SDS011;65080;50.908;6.916;2023-02-01T11:10:57;13.00;;;2.70;;
76262;SDS011;65080;50.908;6.916;2023-02-01T11:13:28;12.40;;;2.80;;
76262;SDS011;65080;50.908;6.916;2023-02-01T11:15:58;11.13;;;3.00;;
76262;SDS011;65080;50.908;6.916;2023-02-01T11:18:30;8.27;;;3.07;;
76262;SDS011;65080;50.908;6.916;2023-02-01T11:21:04;16.13;;;3.70;;
76262;SDS011;65080;50.908;6.916;2023-02-01T11:23:35;18.60;;;3.53;;
76262;SDS011;65080;50.908;6.916;2023-02-01T11:26:10;15.70;;;3.17;;
76262;SDS011;65080;50.908;6.916;2023-02-01T11:28:44;18.87;;;3.00;;
76262;SDS011;65080;50.908;6.916;2023-02-01T11:31:18;13.47;;;2.90;;
76262;SDS011;65080;50.908;6.916;2023-02-01T11:33:49;13.77;;;3.50;;
76262;SDS011;65080;50.908;6.916;2023-02-01T11:36:22;13.40;;;3.00;;
76262;SDS011;65080;50.908;6.916;2023-02-01T11:38:54;13.43;;;4.30;;
76262;SDS011;65080;50.908;6.916;2023-02-01T11:41:40;12.77;;;3.00;;
76262;SDS011;65080;50.908;6.916;2023-02-01T11:44:18;10.67;;;2.57;;
76262;SDS011;65080;50.908;6.916;2023-02-01T11:46:49;10.63;;;2.47;;
76262;SDS011;65080;50.908;6.916;2023-02-01T11:49:21;11.27;;;3.07;;
76262;SDS011;65080;50.908;6.916;2023-02-01T11:51:55;12.63;;;2.73;;
76262;SDS011;65080;50.908;6.916;2023-02-01T11:54:41;16.77;;;3.20;;
76262;SDS011;65080;50.908;6.916;2023-02-01T11:57:33;16.63;;;3.17;;
76262;SDS011;65080;50.908;6.916;2023-02-01T12:06:24;7.83;;;2.90;;
76262;SDS011;65080;50.908;6.916;2023-02-01T12:09:03;14.00;;;3.07;;
76262;SDS011;65080;50.908;6.916;2023-02-01T12:11:43;9.13;;;2.27;;
76262;SDS011;65080;50.908;6.916;2023-02-01T12:14:22;14.23;;;2.60;;
76262;SDS011;65080;50.908;6.916;2023-02-01T12:17:12;14.07;;;3.70;;
76262;SDS011;65080;50.908;6.916;2023-02-01T12:19:57;10.43;;;2.63;;
76262;SDS011;65080;50.908;6.916;2023-02-01T12:22:42;14.10;;;2.93;;
76262;SDS011;65080;50.908;6.916;2023-02-01T12:25:22;11.90;;;2.80;;
76262;SDS011;65080;50.908;6.916;2023-02-01T12:28:05;12.40;;;2.60;;
76262;SDS011;65080;50.908;6.916;2023-02-01T12:34:01;8.50;;;2.60;;
76262;SDS011;65080;50.908;6.916;2023-02-01T12:36:44;9.67;;;2.50;;
76262;SDS011;65080;50.908;6.916;2023-02-01T12:39:21;13.63;;;3.17;;
76262;SDS011;65080;50.908;6.916;2023-02-01T12:42:00;6.27;;;2.20;;
76262;SDS011;65080;50.908;6.916;2023-02-01T12:44:34;11.73;;;2.10;;
76262;SDS011;65080;50.908;6.916;2023-02-01T12:47:11;17.27;;;3.40;;
76262;SDS011;65080;50.908;6.916;2023-02-01T12:49:46;7.27;;;2.67;;
76262;SDS011;65080;50.908;6.916;2023-02-01T12:52:20;15.63;;;3.33;;
76262;SDS011;65080;50.908;6.916;2023-02-01T12:54:55;13.90;;;2.33;;
76262;SDS011;65080;50.908;6.916;2023-02-01T12:57:30;11.20;;;2.93;;
76262;SDS011;65080;50.908;6.916;2023-02-01T13:00:02;15.57;;;3.50;;
76262;SDS011;65080;50.908;6.916;2023-02-01T13:02:39;11.93;;;2.63;;
76262;SDS011;65080;50.908;6.916;2023-02-01T13:05:16;14.47;;;2.60;;
76262;SDS011;65080;50.908;6.916;2023-02-01T13:07:48;19.27;;;3.63;;
76262;SDS011;65080;50.908;6.916;2023-02-01T13:10:20;14.00;;;2.80;;
76262;SDS011;65080;50.908;6.916;2023-02-01T13:12:59;12.43;;;2.53;;
76262;SDS011;65080;50.908;6.916;2023-02-01T13:15:39;16.30;;;4.20;;
76262;SDS011;65080;50.908;6.916;2023-02-01T13:18:13;14.30;;;2.77;;
76262;SDS011;65080;50.908;6.916;2023-02-01T13:20:46;14.13;;;3.13;;
76262;SDS011;65080;50.908;6.916;2023-02-01T13:23:21;10.57;;;2.60;;
76262;SDS011;65080;50.908;6.916;2023-02-01T13:25:54;16.17;;;3.20;;
76262;SDS011;65080;50.908;6.916;2023-02-01T13:28:25;14.80;;;3.10;;
76262;SDS011;65080;50.908;6.916;2023-02-01T13:31:00;11.00;;;2.50;;
76262;SDS011;65080;50.908;6.916;2023-02-01T13:33:48;13.50;;;2.23;;
76262;SDS011;65080;50.908;6.916;2023-02-01T13:36:34;12.23;;;2.80;;
76262;SDS011;65080;50.908;6.916;2023-02-01T13:39:22;13.43;;;2.60;;
76262;SDS011;65080;50.908;6.916;2023-02-01T13:42:12;13.50;;;2.80;;
76262;SDS011;65080;50.908;6.916;2023-02-01T13:44:45;11.30;;;2.73;;
76262;SDS011;65080;50.908;6.916;2023-02-01T13:47:22;15.00;;;2.73;;
76262;SDS011;65080;50.908;6.916;2023-02-01T13:49:55;15.47;;;3.03;;
76262;SDS011;65080;50.908;6.916;2023-02-01T13:52:27;14.43;;;2.63;;
76262;SDS011;65080;50.908;6.916;2023-02-01T13:55:01;13.20;;;2.33;;
76262;SDS011;65080;50.908;6.916;2023-02-01T13:57:41;14.67;;;2.73;;
76262;SDS011;65080;50.908;6.916;2023-02-01T14:03:06;11.20;;;2.87;;
76262;SDS011;65080;50.908;6.916;2023-02-01T14:06:01;7.10;;;2.40;;
76262;SDS011;65080;50.908;6.916;2023-02-01T14:08:46;15.43;;;3.60;;
76262;SDS011;65080;50.908;6.916;2023-02-01T14:11:41;11.30;;;3.17;;
76262;SDS011;65080;50.908;6.916;2023-02-01T14:26:07;8.90;;;1.70;;
76262;SDS011;65080;50.908;6.916;2023-02-01T14:28:40;8.57;;;2.53;;
76262;SDS011;65080;50.908;6.916;2023-02-01T14:31:19;9.27;;;2.53;;
76262;SDS011;65080;50.908;6.916;2023-02-01T14:34:11;13.63;;;2.60;;
76262;SDS011;65080;50.908;6.916;2023-02-01T14:36:44;17.43;;;3.27;;
76262;SDS011;65080;50.908;6.916;2023-02-01T14:39:25;14.40;;;2.50;;
76262;SDS011;65080;50.908;6.916;2023-02-01T14:42:01;13.70;;;2.60;;
76262;SDS011;65080;50.908;6.916;2023-02-01T14:44:33;13.13;;;2.30;;
76262;SDS011;65080;50.908;6.916;2023-02-01T14:50:12;11.53;;;2.17;;
76262;SDS011;65080;50.908;6.916;2023-02-01T14:52:47;10.00;;;2.30;;
76262;SDS011;65080;50.908;6.916;2023-02-01T14:55:21;12.63;;;2.53;;
76262;SDS011;65080;50.908;6.916;2023-02-01T14:57:54;11.80;;;3.70;;
76262;SDS011;65080;50.908;6.916;2023-02-01T15:00:26;8.60;;;2.00;;
76262;SDS011;65080;50.908;6.916;2023-02-01T15:02:56;10.20;;;2.23;;
76262;SDS011;65080;50.908;6.916;2023-02-01T15:05:49;8.43;;;4.00;;
76262;SDS011;65080;50.908;6.916;2023-02-01T15:08:23;9.23;;;2.33;;
76262;SDS011;65080;50.908;6.916;2023-02-01T15:10:54;14.40;;;3.60;;
76262;SDS011;65080;50.908;6.916;2023-02-01T15:13:24;7.13;;;2.30;;
76262;SDS011;65080;50.908;6.916;2023-02-01T15:16:03;11.43;;;1.60;;
76262;SDS011;65080;50.908;6.916;2023-02-01T15:18:37;10.00;;;1.90;;
76262;SDS011;65080;50.908;6.916;2023-02-01T15:21:14;9.93;;;2.27;;
76262;SDS011;65080;50.908;6.916;2023-02-01T15:24:09;11.17;;;2.73;;
76262;SDS011;65080;50.908;6.916;2023-02-01T15:26:38;14.33;;;2.93;;
76262;SDS011;65080;50.908;6.916;2023-02-01T15:29:10;17.87;;;2.50;;
76262;SDS011;65080;50.908;6.916;2023-02-01T15:31:40;12.43;;;2.50;;
76262;SDS011;65080;50.908;6.916;2023-02-01T15:34:11;9.70;;;2.40;;
76262;SDS011;65080;50.908;6.916;2023-02-01T15:36:41;15.87;;;2.63;;
76262;SDS011;65080;50.908;6.916;2023-02-01T15:39:27;11.20;;;2.47;;
76262;SDS011;65080;50.908;6.916;2023-02-01T15:41:59;15.27;;;2.87;;
76262;SDS011;65080;50.908;6.916;2023-02-01T15:44:37;12.07;;;2.40;;
76262;SDS011;65080;50.908;6.916;2023-02-01T15:47:10;10.13;;;1.93;;
76262;SDS011;65080;50.908;6.916;2023-02-01T15:49:45;11.83;;;2.60;;